Time;durP1;ratioP1;P1;durP2;ratioP2;P2;SDS_P1;SDS_P2;PMS_P1;PMS_P2;Temp;Humidity;BMP_temperature;BMP_pressure;BME280_temperature;BME280_humidity;BME280_pressure;Samples;Min_cycle;Max_cycle;Signal;HPM_P1;HPM_P2
2023/10/13 00:00:41;;;;;;;21.20;4.47;;;;;;;;;;5107421;28;20327;-42
2023/10/13 00:03:18;;;;;;;21.70;4.72;;;;;;;;;;5107890;28;20296;-39
2023/10/13 00:05:45;;;;;;;14.27;3.97;;;;;;;;;;5107183;28;20222;-42
2023/10/13 00:08:13;;;;;;;18.80;4.25;;;;;;;;;;5107454;28;20042;-45
2023/10/13 00:10:40;;;;;;;16.33;3.90;;;;;;;;;;5107263;28;20036;-42
2023/10/13 00:13:12;;;;;;;22.45;5.38;;;;;;;;;;5107460;28;20046;-43
2023/10/13 00:15:44;;;;;;;17.17;5.72;;;;;;;;;;5106876;28;20020;-43
2023/10/13 00:18:14;;;;;;;24.10;6.35;;;;;;;;;;5107557;28;20032;-43
2023/10/13 00:20:49;;;;;;;24.75;7.13;;;;;;;;;;5106985;28;20028;-43
2023/10/13 00:23:20;;;;;;;19.25;6.50;;;;;;;;;;5107325;28;20055;-42
2023/10/13 00:25:56;;;;;;;21.05;5.93;;;;;;;;;;5106920;28;20070;-43
2023/10/13 00:28:35;;;;;;;17.98;4.82;;;;;;;;;;5107330;28;20028;-41
2023/10/13 00:31:10;;;;;;;12.98;4.30;;;;;;;;;;5106819;28;20316;-40
2023/10/13 00:33:46;;;;;;;11.43;4.43;;;;;;;;;;5106571;28;20320;-40
2023/10/13 00:36:19;;;;;;;10.40;3.92;;;;;;;;;;5106570;28;20024;-42
2023/10/13 00:38:52;;;;;;;12.18;4.20;;;;;;;;;;5106465;28;20032;-40
2023/10/13 00:41:44;;;;;;;8.30;3.80;;;;;;;;;;5106124;28;20024;-38
2023/10/13 00:44:08;;;;;;;10.45;3.60;;;;;;;;;;5106261;28;20039;-43
2023/10/13 00:46:37;;;;;;;13.68;3.88;;;;;;;;;;5106464;28;20031;-39
2023/10/13 00:49:05;;;;;;;7.88;3.95;;;;;;;;;;5106691;28;20028;-43
2023/10/13 00:51:34;;;;;;;10.30;3.88;;;;;;;;;;5106387;28;20024;-41
2023/10/13 00:54:13;;;;;;;12.38;3.80;;;;;;;;;;5106436;28;20021;-39
2023/10/13 00:56:46;;;;;;;11.25;4.00;;;;;;;;;;5105888;28;20032;-43
2023/10/13 00:59:14;;;;;;;13.20;3.78;;;;;;;;;;5106216;28;20347;-42
2023/10/13 01:01:42;;;;;;;11.35;3.60;;;;;;;;;;5106246;28;20205;-42
2023/10/13 01:04:12;;;;;;;10.80;3.80;;;;;;;;;;5106088;28;20212;-42
2023/10/13 01:06:39;;;;;;;8.57;4.05;;;;;;;;;;5106047;28;20086;-41
2023/10/13 01:09:16;;;;;;;8.52;4.00;;;;;;;;;;5105962;28;20035;-41
2023/10/13 01:11:48;;;;;;;11.30;3.80;;;;;;;;;;5106212;28;20027;-41
2023/10/13 01:14:17;;;;;;;10.77;3.55;;;;;;;;;;5105931;28;20032;-42
2023/10/13 01:16:44;;;;;;;8.35;3.05;;;;;;;;;;5105687;28;20028;-45
2023/10/13 01:19:17;;;;;;;6.82;3.05;;;;;;;;;;5105936;28;20034;-39
2023/10/13 01:21:44;;;;;;;18.42;4.05;;;;;;;;;;5104072;28;20039;-41
2023/10/13 01:24:13;;;;;;;15.80;3.63;;;;;;;;;;5101412;28;20341;-47
2023/10/13 01:26:42;;;;;;;15.25;3.85;;;;;;;;;;5105540;28;20055;-49
2023/10/13 01:29:12;;;;;;;9.45;3.92;;;;;;;;;;5105497;28;20039;-48
2023/10/13 01:31:45;;;;;;;10.02;3.88;;;;;;;;;;5104249;28;20032;-49
2023/10/13 01:34:24;;;;;;;10.57;3.72;;;;;;;;;;5110339;28;20027;-43
2023/10/13 01:36:56;;;;;;;12.75;3.95;;;;;;;;;;5126075;28;20030;-39
2023/10/13 01:39:28;;;;;;;8.80;3.70;;;;;;;;;;5125612;28;20024;-39
2023/10/13 01:41:57;;;;;;;;;;;;;;;;;;5126259;28;20089;-49
2023/10/13 01:44:24;;;;;;;10.07;3.92;;;;;;;;;;5101634;28;20122;-42
2023/10/13 01:46:51;;;;;;;13.20;3.50;;;;;;;;;;5085148;28;20088;-42
2023/10/13 01:49:17;;;;;;;10.52;3.40;;;;;;;;;;5084846;28;20025;-44
2023/10/13 01:51:47;;;;;;;10.75;3.40;;;;;;;;;;5084986;28;20100;-45
2023/10/13 01:54:15;;;;;;;17.67;3.80;;;;;;;;;;5084854;28;20028;-47
2023/10/13 01:56:44;;;;;;;9.35;3.60;;;;;;;;;;5101237;28;20079;-43
2023/10/13 01:59:13;;;;;;;11.25;3.25;;;;;;;;;;5105188;28;20027;-48
2023/10/13 02:01:41;;;;;;;9.70;3.22;;;;;;;;;;5104994;28;20044;-38
2023/10/13 02:04:10;;;;;;;12.48;3.95;;;;;;;;;;5104671;28;20381;-36
2023/10/13 02:06:37;;;;;;;18.27;4.35;;;;;;;;;;5103782;28;20052;-38
2023/10/13 02:09:10;;;;;;;15.43;3.90;;;;;;;;;;5103485;28;20032;-44
2023/10/13 02:11:52;;;;;;;12.07;3.63;;;;;;;;;;5104499;28;20051;-44
2023/10/13 02:14:22;;;;;;;;;;;;;;;;;;5125175;28;20032;-42
2023/10/13 02:17:11;;;;;;;9.18;3.67;;;;;;;;;;5110490;28;19950;-47
2023/10/13 02:19:45;;;;;;;9.95;3.85;;;;;;;;;;5096732;28;20028;-51
2023/10/13 02:22:25;;;;;;;8.93;3.72;;;;;;;;;;5084645;28;20056;-45
2023/10/13 02:24:52;;;;;;;12.75;3.60;;;;;;;;;;5084589;28;20036;-44
2023/10/13 02:27:23;;;;;;;8.50;3.67;;;;;;;;;;5087281;28;20200;-45
2023/10/13 02:29:58;;;;;;;8.93;3.88;;;;;;;;;;5100665;28;20032;-45
2023/10/13 02:32:30;;;;;;;11.65;3.70;;;;;;;;;;5103200;28;20020;-37
2023/10/13 02:35:05;;;;;;;12.93;4.22;;;;;;;;;;5104715;28;20039;-36
2023/10/13 02:37:32;;;;;;;11.68;3.63;;;;;;;;;;5104579;28;20204;-44
2023/10/13 02:40:00;;;;;;;8.77;3.40;;;;;;;;;;5104446;28;20036;-42
2023/10/13 02:42:26;;;;;;;9.48;3.33;;;;;;;;;;5104771;28;20023;-48
2023/10/13 02:44:57;;;;;;;9.07;3.22;;;;;;;;;;5103771;28;20042;-37
2023/10/13 02:47:24;;;;;;;5.65;2.95;;;;;;;;;;5104534;28;20204;-44
2023/10/13 02:49:51;;;;;;;11.10;2.90;;;;;;;;;;5114721;28;20090;-52
2023/10/13 02:52:17;;;;;;;7.00;2.58;;;;;;;;;;5084458;28;20030;-48
2023/10/13 02:54:47;;;;;;;6.40;2.75;;;;;;;;;;5082246;28;20048;-42
2023/10/13 02:57:17;;;;;;;6.57;2.40;;;;;;;;;;5082583;28;20452;-41
2023/10/13 02:59:46;;;;;;;7.70;2.85;;;;;;;;;;5082127;28;20095;-42
2023/10/13 03:02:27;;;;;;;7.38;3.63;;;;;;;;;;5082740;28;20309;-41
2023/10/13 03:05:08;;;;;;;8.48;2.80;;;;;;;;;;5083591;28;20028;-41
2023/10/13 03:07:36;;;;;;;5.65;2.75;;;;;;;;;;5084041;28;20040;-45
2023/10/13 03:10:09;;;;;;;6.50;2.58;;;;;;;;;;5082181;28;20324;-43
2023/10/13 03:12:39;;;;;;;6.57;2.40;;;;;;;;;;5081949;28;20040;-36
2023/10/13 03:15:16;;;;;;;6.28;2.60;;;;;;;;;;5082365;28;20051;-43
2023/10/13 03:17:43;;;;;;;4.97;2.35;;;;;;;;;;5124491;28;20028;-40
2023/10/13 03:20:15;;;;;;;6.63;2.38;;;;;;;;;;5129812;28;20401;-47
2023/10/13 03:22:45;;;;;;;3.92;2.17;;;;;;;;;;5129712;28;20031;-41
2023/10/13 03:25:29;;;;;;;3.20;2.08;;;;;;;;;;5129318;28;20031;-41
2023/10/13 03:30:30;;;;;;;5.68;2.40;;;;;;;;;;5129464;28;20041;-39
2023/10/13 03:32:57;;;;;;;4.68;2.15;;;;;;;;;;5129436;28;20386;-48
2023/10/13 03:35:24;;;;;;;3.60;2.20;;;;;;;;;;5130340;28;20025;-44
2023/10/13 03:37:52;;;;;;;3.58;2.15;;;;;;;;;;5129845;28;20031;-49
2023/10/13 03:43:29;;;;;;;3.80;1.95;;;;;;;;;;5129662;28;20047;-39
2023/10/13 03:45:47;;;;;;;2.05;1.70;;;;;;;;;;5127139;28;20359;-39
2023/10/13 03:51:10;;;;;;;4.20;2.13;;;;;;;;;;5112691;28;20115;-40
2023/10/13 03:53:58;;;;;;;6.30;2.28;;;;;;;;;;5131117;28;20051;-46
2023/10/13 03:56:38;;;;;;;4.47;2.40;;;;;;;;;;5130499;27;20106;-43
2023/10/13 03:59:06;;;;;;;3.75;2.30;;;;;;;;;;5130835;28;20026;-45
2023/10/13 04:04:34;;;;;;;3.47;2.25;;;;;;;;;;5130804;28;20022;-38
2023/10/13 04:17:22;;;;;;;3.72;2.28;;;;;;;;;;5131031;28;20065;-43
2023/10/13 04:36:28;;;;;;;3.72;2.00;;;;;;;;;;5127242;28;20074;-40
2023/10/13 04:39:09;;;;;;;3.47;2.10;;;;;;;;;;5127150;28;20331;-38
2023/10/13 04:41:42;;;;;;;3.03;1.90;;;;;;;;;;5126973;28;20029;-41
2023/10/13 04:47:07;;;;;;;3.35;2.00;;;;;;;;;;5127272;28;20034;-42
2023/10/13 04:55:09;;;;;;;7.03;2.03;;;;;;;;;;5127015;28;20216;-41
2023/10/13 04:57:47;;;;;;;5.40;1.92;;;;;;;;;;5126952;28;20373;-38
2023/10/13 05:06:08;;;;;;;5.57;2.20;;;;;;;;;;5126602;28;20371;-40
2023/10/13 06:28:42;;;;;;;6.07;2.10;;;;;;;;;;5084488;28;20100;-40
2023/10/13 06:31:21;;;;;;;4.30;2.05;;;;;;;;;;5084316;28;20263;-51
2023/10/13 06:33:48;;;;;;;5.78;2.05;;;;;;;;;;5084276;28;20237;-45
2023/10/13 06:36:14;;;;;;;5.30;1.88;;;;;;;;;;5084183;28;20332;-37
2023/10/13 06:38:41;;;;;;;4.32;1.88;;;;;;;;;;5084055;28;20024;-38
2023/10/13 06:41:08;;;;;;;3.05;1.65;;;;;;;;;;5084181;28;20044;-38
2023/10/13 06:43:43;;;;;;;4.63;1.60;;;;;;;;;;5084432;28;20059;-41
2023/10/13 06:46:23;;;;;;;3.20;1.63;;;;;;;;;;5083971;28;20028;-40
2023/10/13 06:48:53;;;;;;;2.85;1.60;;;;;;;;;;5084147;28;20093;-48
2023/10/13 06:51:25;;;;;;;3.58;1.80;;;;;;;;;;5083724;28;20024;-46
2023/10/13 06:53:56;;;;;;;8.25;1.83;;;;;;;;;;5083644;28;20039;-48
2023/10/13 06:56:27;;;;;;;3.83;1.73;;;;;;;;;;5083971;28;20035;-39
2023/10/13 06:59:04;;;;;;;4.60;1.90;;;;;;;;;;5083973;28;20340;-39
2023/10/13 07:01:38;;;;;;;3.53;1.73;;;;;;;;;;5083884;28;20040;-39
2023/10/13 07:04:12;;;;;;;4.15;1.70;;;;;;;;;;5083762;28;20032;-39
2023/10/13 07:06:47;;;;;;;5.30;1.70;;;;;;;;;;5083922;28;20059;-38
2023/10/13 07:12:03;;;;;;;6.30;2.95;;;;;;;;;;5083698;28;20071;-38
2023/10/13 07:14:33;;;;;;;8.23;3.67;;;;;;;;;;5083577;28;20024;-39
2023/10/13 07:17:04;;;;;;;5.72;3.67;;;;;;;;;;5083914;28;20090;-41
2023/10/13 07:19:33;;;;;;;7.68;4.05;;;;;;;;;;5083864;28;20102;-44
2023/10/13 07:22:18;;;;;;;7.10;3.90;;;;;;;;;;5083771;28;20035;-39
2023/10/13 07:24:48;;;;;;;7.70;3.33;;;;;;;;;;5083651;28;20054;-43
2023/10/13 07:27:22;;;;;;;5.78;2.67;;;;;;;;;;5083815;28;20397;-38
2023/10/13 07:29:56;;;;;;;3.60;2.17;;;;;;;;;;5083645;28;20351;-38
2023/10/13 07:32:26;;;;;;;5.25;2.63;;;;;;;;;;5083715;28;20212;-39
2023/10/13 07:34:57;;;;;;;6.13;2.15;;;;;;;;;;5083741;28;20055;-40
2023/10/13 07:37:30;;;;;;;4.53;2.05;;;;;;;;;;5083807;28;20320;-38
2023/10/13 07:40:00;;;;;;;4.20;2.00;;;;;;;;;;5083598;28;20228;-44
2023/10/13 07:42:48;;;;;;;3.55;1.80;;;;;;;;;;5083891;28;20367;-47
2023/10/13 07:45:17;;;;;;;4.05;1.80;;;;;;;;;;5083137;28;20040;-38
2023/10/13 07:47:46;;;;;;;4.63;1.40;;;;;;;;;;5083787;28;20100;-49
2023/10/13 07:50:12;;;;;;;5.05;1.60;;;;;;;;;;5083335;28;20087;-43
2023/10/13 07:52:58;;;;;;;7.53;2.08;;;;;;;;;;5083248;28;20338;-40
2023/10/13 07:55:25;;;;;;;7.05;2.20;;;;;;;;;;5083243;28;20028;-40
2023/10/13 07:57:56;;;;;;;4.05;1.95;;;;;;;;;;5083383;28;20025;-41
2023/10/13 08:00:46;;;;;;;6.72;1.95;;;;;;;;;;5083357;28;20139;-39
2023/10/13 08:06:04;;;;;;;4.75;1.80;;;;;;;;;;5084136;28;20087;-39
2023/10/13 08:08:38;;;;;;;9.13;2.00;;;;;;;;;;5087488;28;20066;-40
2023/10/13 08:19:15;;;;;;;3.33;1.73;;;;;;;;;;5087115;28;20044;-38
2023/10/13 08:21:49;;;;;;;3.65;1.60;;;;;;;;;;5086695;28;20028;-48
2023/10/13 08:24:24;;;;;;;3.95;1.80;;;;;;;;;;5086723;28;20084;-44
2023/10/13 08:27:15;;;;;;;10.98;1.83;;;;;;;;;;5086734;28;20070;-43
2023/10/13 08:53:32;;;;;;;2.47;1.35;;;;;;;;;;5086489;28;20347;-38
2023/10/13 08:56:16;;;;;;;5.30;2.05;;;;;;;;;;5086209;28;20340;-38
2023/10/13 09:01:36;;;;;;;6.63;2.08;;;;;;;;;;5106430;28;20028;-40
2023/10/13 09:04:38;;;;;;;3.10;1.98;;;;;;;;;;5106211;28;20031;-36
2023/10/13 09:12:13;;;;;;;5.60;2.05;;;;;;;;;;5106091;28;20040;-41
2023/10/13 09:14:44;;;;;;;5.47;2.00;;;;;;;;;;5106036;28;20028;-37
2023/10/13 09:19:55;;;;;;;6.35;2.00;;;;;;;;;;5105967;28;20023;-42
2023/10/13 09:22:37;;;;;;;6.85;2.28;;;;;;;;;;5106127;28;20285;-40
2023/10/13 09:25:13;;;;;;;;;;;;;;;;;;5106206;28;20062;-38
2023/10/13 09:27:39;;;;;;;6.38;2.22;;;;;;;;;;5106097;28;19904;-46
2023/10/13 09:30:18;;;;;;;7.22;2.15;;;;;;;;;;5105856;28;20324;-39
2023/10/13 09:32:48;;;;;;;4.30;2.22;;;;;;;;;;5105877;28;20035;-37
2023/10/13 09:35:22;;;;;;;8.63;2.05;;;;;;;;;;5105676;28;20024;-48
2023/10/13 09:37:51;;;;;;;5.10;1.70;;;;;;;;;;5105937;28;20375;-48
2023/10/13 09:41:18;;;;;;;5.47;1.80;;;;;;;;;;5105603;28;20087;-38
2023/10/13 09:43:17;;;;;;;3.78;1.80;;;;;;;;;;5087987;28;20032;-42
2023/10/13 09:48:46;;;;;;;4.35;1.83;;;;;;;;;;5060717;28;20054;-40
2023/10/13 09:51:22;;;;;;;4.28;2.03;;;;;;;;;;5105175;28;20316;-44
2023/10/13 09:54:00;;;;;;;5.13;2.20;;;;;;;;;;5105273;28;20060;-38
2023/10/13 09:56:34;;;;;;;6.65;2.05;;;;;;;;;;5105129;28;20031;-49
2023/10/13 09:59:08;;;;;;;7.65;2.00;;;;;;;;;;5105206;28;20035;-40
2023/10/13 10:01:38;;;;;;;6.80;2.00;;;;;;;;;;5105393;28;20028;-38
2023/10/13 10:04:09;;;;;;;6.15;2.00;;;;;;;;;;5109603;28;20023;-46
2023/10/13 10:06:40;;;;;;;7.18;1.95;;;;;;;;;;5113090;28;20048;-41
2023/10/13 10:09:14;;;;;;;5.18;1.90;;;;;;;;;;5118200;28;20051;-38
2023/10/13 10:11:49;;;;;;;6.45;1.88;;;;;;;;;;5125426;28;20042;-47
2023/10/13 10:14:25;;;;;;;4.78;2.20;;;;;;;;;;5125467;28;20338;-38
2023/10/13 10:17:07;;;;;;;6.93;1.83;;;;;;;;;;5125323;28;20082;-42
2023/10/13 10:19:57;;;;;;;5.88;2.33;;;;;;;;;;5125192;28;20269;-46
2023/10/13 10:22:36;;;;;;;6.10;2.33;;;;;;;;;;5125433;28;20139;-53
2023/10/13 10:25:07;;;;;;;9.55;2.30;;;;;;;;;;5125273;28;20047;-37
2023/10/13 10:27:41;;;;;;;7.38;2.30;;;;;;;;;;5124757;28;20324;-38
2023/10/13 10:30:13;;;;;;;5.22;2.30;;;;;;;;;;5123664;28;20094;-50
2023/10/13 10:32:41;;;;;;;5.90;2.10;;;;;;;;;;5111055;28;20327;-43
2023/10/13 10:35:15;;;;;;;8.68;2.67;;;;;;;;;;5111653;28;20031;-39
2023/10/13 10:37:48;;;;;;;7.10;2.45;;;;;;;;;;5100523;28;20214;-39
2023/10/13 10:40:46;;;;;;;6.43;2.13;;;;;;;;;;5084159;28;20021;-42
2023/10/13 10:43:17;;;;;;;7.53;1.95;;;;;;;;;;5104870;28;20043;-39
2023/10/13 10:45:51;;;;;;;6.47;2.40;;;;;;;;;;5104686;28;20213;-40
2023/10/13 10:48:18;;;;;;;10.27;2.58;;;;;;;;;;5100842;28;20040;-45
2023/10/13 10:50:53;;;;;;;7.10;2.13;;;;;;;;;;5100382;28;20027;-37
2023/10/13 10:53:43;;;;;;;9.73;2.55;;;;;;;;;;5101588;28;20035;-38
2023/10/13 10:56:20;;;;;;;11.00;3.58;;;;;;;;;;5102522;28;20065;-40
2023/10/13 10:58:47;;;;;;;15.15;4.10;;;;;;;;;;5094146;28;20032;-38
2023/10/13 11:01:20;;;;;;;15.55;5.00;;;;;;;;;;5096692;28;20043;-43
2023/10/13 11:04:07;;;;;;;16.77;4.60;;;;;;;;;;5102331;28;20103;-38
2023/10/13 11:06:41;;;;;;;11.10;3.85;;;;;;;;;;5117802;28;20051;-33
2023/10/13 11:12:14;;;;;;;10.27;4.47;;;;;;;;;;5099155;28;20347;-39
2023/10/13 11:14:41;;;;;;;12.77;4.60;;;;;;;;;;5122539;28;20287;-44
2023/10/13 11:17:20;;;;;;;11.40;4.65;;;;;;;;;;5122828;28;20095;-43
2023/10/13 11:19:47;;;;;;;16.98;4.15;;;;;;;;;;5122475;28;20032;-37
2023/10/13 11:22:32;;;;;;;13.18;4.38;;;;;;;;;;5122820;28;20173;-40
2023/10/13 11:25:12;;;;;;;12.63;3.95;;;;;;;;;;5122464;28;20042;-44
2023/10/13 11:30:25;;;;;;;10.68;5.32;;;;;;;;;;5122335;28;20040;-36
2023/10/13 11:33:08;;;;;;;14.82;5.95;;;;;;;;;;5122681;28;20012;-37
2023/10/13 11:35:55;;;;;;;16.92;4.70;;;;;;;;;;5122269;28;20316;-33
2023/10/13 11:38:26;;;;;;;24.73;7.40;;;;;;;;;;5124534;28;20125;-37
2023/10/13 11:48:38;;;;;;;28.25;11.40;;;;;;;;;;5106966;28;20020;-42
2023/10/13 11:51:08;;;;;;;24.70;9.63;;;;;;;;;;5107054;28;20032;-39
2023/10/13 11:53:38;;;;;;;21.83;8.15;;;;;;;;;;5107982;28;20205;-40
2023/10/13 11:56:09;;;;;;;16.88;6.38;;;;;;;;;;5107717;28;20058;-44
2023/10/13 11:58:39;;;;;;;15.97;5.70;;;;;;;;;;5107410;28;20024;-43
2023/10/13 12:11:48;;;;;;;7.63;4.00;;;;;;;;;;5105742;28;20020;-41
2023/10/13 12:14:27;;;;;;;6.07;3.10;;;;;;;;;;5105771;28;20032;-43
2023/10/13 12:16:55;;;;;;;8.45;3.30;;;;;;;;;;5106538;28;20362;-44
2023/10/13 12:19:26;;;;;;;7.93;3.10;;;;;;;;;;5107122;28;20031;-39
2023/10/13 12:21:56;;;;;;;8.40;3.45;;;;;;;;;;5107039;28;20067;-42
2023/10/13 12:27:03;;;;;;;7.53;3.10;;;;;;;;;;5107076;28;20028;-42
2023/10/13 12:29:34;;;;;;;8.00;3.10;;;;;;;;;;5106902;28;20028;-41
2023/10/13 12:32:14;;;;;;;9.30;3.03;;;;;;;;;;5106893;28;20059;-42
2023/10/13 12:35:16;;;;;;;7.40;2.92;;;;;;;;;;5106711;28;20261;-41
2023/10/13 12:54:04;;;;;;;6.10;2.70;;;;;;;;;;5106512;28;20028;-43
2023/10/13 12:56:31;;;;;;;7.20;3.03;;;;;;;;;;5106385;28;20243;-40
2023/10/13 12:58:58;;;;;;;4.50;2.97;;;;;;;;;;5106262;28;20032;-40
2023/10/13 13:01:32;;;;;;;8.20;3.47;;;;;;;;;;5106403;28;20043;-39
2023/10/13 13:04:03;;;;;;;13.05;3.28;;;;;;;;;;5106181;28;20031;-40
2023/10/13 13:06:30;;;;;;;6.63;3.20;;;;;;;;;;5106086;28;20067;-43
2023/10/13 13:08:58;;;;;;;8.60;3.33;;;;;;;;;;5106112;28;20020;-42
2023/10/13 13:11:25;;;;;;;7.70;2.95;;;;;;;;;;5105969;28;20079;-41
2023/10/13 13:13:52;;;;;;;7.85;3.20;;;;;;;;;;5106027;28;20032;-42
2023/10/13 13:16:23;;;;;;;5.18;3.10;;;;;;;;;;5105882;28;20016;-41
2023/10/13 13:18:51;;;;;;;8.02;3.30;;;;;;;;;;5106070;28;20206;-41
2023/10/13 13:21:23;;;;;;;6.85;3.05;;;;;;;;;;5106047;28;20082;-39
2023/10/13 13:23:50;;;;;;;;;;;;;;;;;;5106148;28;20213;-40
2023/10/13 13:26:17;;;;;;;6.50;2.72;;;;;;;;;;5105891;28;19907;-44
2023/10/13 13:28:44;;;;;;;6.88;2.70;;;;;;;;;;5105863;28;20362;-43
2023/10/13 13:31:12;;;;;;;5.63;3.15;;;;;;;;;;5105612;28;20012;-44
2023/10/13 13:33:43;;;;;;;6.60;3.30;;;;;;;;;;5105595;28;20023;-43
2023/10/13 13:36:16;;;;;;;7.60;3.42;;;;;;;;;;5105615;28;20020;-41
2023/10/13 13:38:46;;;;;;;5.80;2.97;;;;;;;;;;5105447;28;20033;-39
2023/10/13 13:41:16;;;;;;;6.85;3.20;;;;;;;;;;5105438;28;20028;-40
2023/10/13 13:46:32;;;;;;;8.35;3.50;;;;;;;;;;5105501;28;20035;-42
2023/10/13 13:49:00;;;;;;;4.43;3.20;;;;;;;;;;5105340;28;20028;-43
2023/10/13 13:51:28;;;;;;;7.72;3.22;;;;;;;;;;5105365;28;20043;-40
2023/10/13 13:53:58;;;;;;;4.43;2.80;;;;;;;;;;5105333;28;20050;-34
2023/10/13 13:56:27;;;;;;;6.07;3.03;;;;;;;;;;5105190;28;20024;-36
2023/10/13 13:58:54;;;;;;;6.22;3.20;;;;;;;;;;5105157;28;20074;-36
2023/10/13 14:01:21;;;;;;;5.93;2.95;;;;;;;;;;5105067;28;20012;-39
2023/10/13 14:03:56;;;;;;;4.93;2.80;;;;;;;;;;5104894;28;20392;-39
2023/10/13 14:06:24;;;;;;;5.65;3.25;;;;;;;;;;5105014;28;20086;-41
2023/10/13 14:08:54;;;;;;;6.40;2.75;;;;;;;;;;5104933;28;20027;-36
2023/10/13 14:14:47;;;;;;;5.97;2.90;;;;;;;;;;5105116;28;20028;-39
2023/10/13 14:17:06;;;;;;;5.10;2.90;;;;;;;;;;5100974;28;20036;-39
2023/10/13 14:19:33;;;;;;;5.10;2.78;;;;;;;;;;5104687;28;20308;-39
2023/10/13 14:22:06;;;;;;;4.80;3.17;;;;;;;;;;5104769;28;20031;-39
2023/10/13 14:24:33;;;;;;;3.22;2.70;;;;;;;;;;5104657;28;20031;-34
2023/10/13 14:27:08;;;;;;;7.05;3.08;;;;;;;;;;5104603;28;20208;-45
2023/10/13 14:29:44;;;;;;;3.13;2.70;;;;;;;;;;5104623;28;20043;-42
2023/10/13 14:32:13;;;;;;;4.15;2.50;;;;;;;;;;5104612;28;20085;-38
2023/10/13 14:34:43;;;;;;;3.72;2.83;;;;;;;;;;5104484;28;20039;-34
2023/10/13 14:39:56;;;;;;;5.03;2.60;;;;;;;;;;5104751;28;20058;-40
2023/10/13 14:42:26;;;;;;;5.40;2.72;;;;;;;;;;5104644;28;20024;-42
2023/10/13 14:44:56;;;;;;;11.25;2.80;;;;;;;;;;5104382;28;20024;-39
2023/10/13 14:47:25;;;;;;;7.32;3.03;;;;;;;;;;5104830;28;20016;-43
2023/10/13 14:49:55;;;;;;;6.70;2.75;;;;;;;;;;5104383;28;20032;-43
2023/10/13 14:52:48;;;;;;;7.38;2.80;;;;;;;;;;5104290;28;20024;-43
2023/10/13 14:55:21;;;;;;;;;;;;;;;;;;5104636;28;20051;-42
2023/10/13 14:57:51;;;;;;;4.78;2.83;;;;;;;;;;5104528;28;19912;-39
2023/10/13 15:00:27;;;;;;;4.60;3.03;;;;;;;;;;5104271;28;20351;-43
2023/10/13 15:02:54;;;;;;;5.47;3.00;;;;;;;;;;5104265;28;20099;-41
2023/10/13 15:05:21;;;;;;;5.88;2.85;;;;;;;;;;5104152;28;20060;-41
2023/10/13 15:07:48;;;;;;;8.05;3.10;;;;;;;;;;5104488;28;20173;-41
2023/10/13 15:10:16;;;;;;;9.90;3.42;;;;;;;;;;5104018;28;20253;-43
2023/10/13 15:12:46;;;;;;;6.00;3.00;;;;;;;;;;5104360;28;20324;-43
2023/10/13 15:15:16;;;;;;;5.90;3.20;;;;;;;;;;5103611;28;20035;-44
2023/10/13 15:17:43;;;;;;;5.32;2.92;;;;;;;;;;5104509;28;20020;-42
2023/10/13 15:20:11;;;;;;;4.35;3.00;;;;;;;;;;5104088;28;20036;-41
2023/10/13 15:22:38;;;;;;;6.72;3.65;;;;;;;;;;5104277;28;20034;-41
2023/10/13 15:25:16;;;;;;;5.13;2.95;;;;;;;;;;5104020;28;20020;-43
2023/10/13 15:27:50;;;;;;;6.00;3.25;;;;;;;;;;5103707;28;20074;-44
2023/10/13 15:30:25;;;;;;;5.57;2.97;;;;;;;;;;5103668;28;20031;-43
2023/10/13 15:32:53;;;;;;;4.75;2.90;;;;;;;;;;5104026;28;20099;-43
2023/10/13 15:35:22;;;;;;;5.85;3.35;;;;;;;;;;5103702;28;20024;-39
2023/10/13 15:37:51;;;;;;;6.88;3.40;;;;;;;;;;5104150;28;20028;-42
2023/10/13 15:40:18;;;;;;;6.95;3.20;;;;;;;;;;5103782;28;20020;-43
2023/10/13 15:42:45;;;;;;;6.05;3.20;;;;;;;;;;5103913;28;20087;-43
2023/10/13 15:45:18;;;;;;;4.55;2.78;;;;;;;;;;5103773;28;20378;-42
2023/10/13 15:47:46;;;;;;;5.88;3.25;;;;;;;;;;5103967;28;20099;-43
2023/10/13 15:50:15;;;;;;;6.38;2.90;;;;;;;;;;5103509;28;20036;-42
2023/10/13 15:52:47;;;;;;;6.03;3.20;;;;;;;;;;5103876;28;20066;-40
2023/10/13 15:55:17;;;;;;;5.53;2.90;;;;;;;;;;5103667;28;20024;-42
2023/10/13 15:57:43;;;;;;;7.38;2.90;;;;;;;;;;5103814;28;20028;-40
2023/10/13 16:00:23;;;;;;;3.72;2.55;;;;;;;;;;5103733;28;20335;-43
2023/10/13 16:02:51;;;;;;;6.13;2.80;;;;;;;;;;5103905;28;20133;-43
2023/10/13 16:05:18;;;;;;;4.70;2.88;;;;;;;;;;5103355;28;20048;-42
2023/10/13 16:07:45;;;;;;;4.45;3.00;;;;;;;;;;5085883;28;20048;-46
2023/10/13 16:10:12;;;;;;;5.32;3.05;;;;;;;;;;5103655;28;20031;-44
2023/10/13 16:12:39;;;;;;;10.30;3.40;;;;;;;;;;5103395;28;20244;-43
2023/10/13 16:15:08;;;;;;;8.52;3.55;;;;;;;;;;5103313;28;20137;-42
2023/10/13 16:17:38;;;;;;;7.35;3.33;;;;;;;;;;5103437;28;20023;-41
2023/10/13 16:20:11;;;;;;;8.18;3.22;;;;;;;;;;5103333;28;20028;-45
2023/10/13 16:22:38;;;;;;;6.43;3.22;;;;;;;;;;5103539;28;20087;-42
2023/10/13 16:25:11;;;;;;;6.03;3.08;;;;;;;;;;5103252;28;20040;-46
2023/10/13 16:27:39;;;;;;;5.53;3.10;;;;;;;;;;5105766;28;20077;-43
2023/10/13 16:30:09;;;;;;;6.15;3.55;;;;;;;;;;5106988;28;20028;-42
2023/10/13 16:32:36;;;;;;;7.40;3.08;;;;;;;;;;5107180;28;20261;-42
2023/10/13 16:35:06;;;;;;;5.05;3.03;;;;;;;;;;5106850;28;20062;-43
2023/10/13 16:37:36;;;;;;;5.90;3.10;;;;;;;;;;5107067;28;20296;-43
2023/10/13 16:40:07;;;;;;;5.13;3.13;;;;;;;;;;5107018;28;20040;-43
2023/10/13 16:42:34;;;;;;;3.88;3.38;;;;;;;;;;5107012;28;20028;-43
2023/10/13 16:45:14;;;;;;;13.20;4.00;;;;;;;;;;5106449;28;20027;-44
2023/10/13 16:48:00;;;;;;;11.93;3.80;;;;;;;;;;5106825;28;20090;-41
2023/10/13 16:50:30;;;;;;;9.80;3.80;;;;;;;;;;5106504;28;20036;-45
2023/10/13 16:52:56;;;;;;;10.63;3.90;;;;;;;;;;5106727;28;20044;-41
2023/10/13 16:55:24;;;;;;;8.65;3.90;;;;;;;;;;5106438;28;20077;-42
2023/10/13 16:57:51;;;;;;;11.52;3.78;;;;;;;;;;5106314;28;20031;-36
2023/10/13 17:00:27;;;;;;;8.52;3.90;;;;;;;;;;5106331;28;20020;-38
2023/10/13 17:02:54;;;;;;;11.80;3.47;;;;;;;;;;5106560;28;20028;-45
2023/10/13 17:05:21;;;;;;;10.18;3.78;;;;;;;;;;5106250;28;20039;-44
2023/10/13 17:07:51;;;;;;;8.60;3.88;;;;;;;;;;5106655;28;20043;-42
2023/10/13 17:10:17;;;;;;;12.65;3.67;;;;;;;;;;5106001;28;20083;-43
2023/10/13 17:12:45;;;;;;;14.90;3.88;;;;;;;;;;5106025;28;20031;-43
2023/10/13 17:15:32;;;;;;;6.88;3.63;;;;;;;;;;5105958;28;20051;-43
2023/10/13 17:18:05;;;;;;;6.40;3.60;;;;;;;;;;5106014;28;20332;-39
2023/10/13 17:20:39;;;;;;;6.57;3.35;;;;;;;;;;5106369;28;20095;-40
2023/10/13 17:23:08;;;;;;;6.07;3.80;;;;;;;;;;5106018;28;20024;-42
2023/10/13 17:25:35;;;;;;;7.68;3.65;;;;;;;;;;5106078;28;20032;-42
2023/10/13 17:28:12;;;;;;;9.13;4.70;;;;;;;;;;5105745;28;20043;-41
2023/10/13 17:30:39;;;;;;;6.65;4.05;;;;;;;;;;5105762;28;20069;-43
2023/10/13 17:33:11;;;;;;;8.20;3.70;;;;;;;;;;5105711;28;20032;-42
2023/10/13 17:35:41;;;;;;;10.90;3.95;;;;;;;;;;5105548;28;20051;-47
2023/10/13 17:38:10;;;;;;;10.40;3.60;;;;;;;;;;5105494;28;20043;-37
2023/10/13 17:40:38;;;;;;;7.90;3.88;;;;;;;;;;5105445;28;20027;-42
2023/10/13 17:43:05;;;;;;;7.90;3.60;;;;;;;;;;5105553;28;20031;-42
2023/10/13 17:45:34;;;;;;;8.48;3.47;;;;;;;;;;5106075;28;20020;-40
2023/10/13 17:48:01;;;;;;;7.10;3.50;;;;;;;;;;5105360;28;20040;-42
2023/10/13 17:50:28;;;;;;;4.97;3.22;;;;;;;;;;5106017;28;20019;-44
2023/10/13 17:52:55;;;;;;;7.85;3.28;;;;;;;;;;5105524;28;20100;-43
2023/10/13 17:55:22;;;;;;;6.50;3.70;;;;;;;;;;5105699;28;20038;-39
2023/10/13 17:57:51;;;;;;;10.63;3.88;;;;;;;;;;5105195;28;20108;-46
2023/10/13 18:00:22;;;;;;;8.80;3.80;;;;;;;;;;5104980;28;20027;-42
2023/10/13 18:02:54;;;;;;;13.13;3.95;;;;;;;;;;5104926;28;20043;-42
2023/10/13 18:05:20;;;;;;;7.85;3.53;;;;;;;;;;5105251;28;20039;-43
2023/10/13 18:07:51;;;;;;;7.05;3.75;;;;;;;;;;5105092;28;20031;-41
2023/10/13 18:10:18;;;;;;;11.60;3.90;;;;;;;;;;5105219;28;20027;-40
2023/10/13 18:12:50;;;;;;;7.05;3.75;;;;;;;;;;5104844;28;20035;-41
2023/10/13 18:15:23;;;;;;;8.45;4.25;;;;;;;;;;5105547;28;20359;-42
2023/10/13 18:17:53;;;;;;;7.18;3.90;;;;;;;;;;5104874;28;20441;-45
2023/10/13 18:20:23;;;;;;;6.50;3.60;;;;;;;;;;5105216;28;20300;-47
2023/10/13 18:22:50;;;;;;;4.82;3.38;;;;;;;;;;5104551;28;20051;-44
2023/10/13 18:25:23;;;;;;;7.78;3.47;;;;;;;;;;5105387;28;20141;-43
2023/10/13 18:27:52;;;;;;;7.25;3.70;;;;;;;;;;5101065;28;20116;-41
2023/10/13 18:30:21;;;;;;;6.95;4.10;;;;;;;;;;5095285;28;20020;-45
2023/10/13 18:32:54;;;;;;;7.25;4.10;;;;;;;;;;5093775;28;20028;-45
2023/10/13 18:35:21;;;;;;;10.98;3.90;;;;;;;;;;5098275;28;20019;-40
2023/10/13 18:37:47;;;;;;;7.97;3.63;;;;;;;;;;5093509;28;20100;-40
2023/10/13 18:40:16;;;;;;;13.32;4.55;;;;;;;;;;5096981;28;20246;-38
2023/10/13 18:42:47;;;;;;;7.90;3.70;;;;;;;;;;5084649;28;20028;-35
2023/10/13 18:45:22;;;;;;;11.85;4.10;;;;;;;;;;5084071;28;20036;-40
2023/10/13 18:47:52;;;;;;;8.38;4.35;;;;;;;;;;5084660;28;20024;-40
2023/10/13 18:50:20;;;;;;;11.18;4.00;;;;;;;;;;5084283;28;20351;-42
2023/10/13 18:52:47;;;;;;;11.57;3.90;;;;;;;;;;5084739;28;20024;-43
2023/10/13 18:55:15;;;;;;;9.63;4.35;;;;;;;;;;5084540;28;20031;-39
2023/10/13 18:57:45;;;;;;;9.73;4.03;;;;;;;;;;5084321;28;20054;-40
2023/10/13 19:00:15;;;;;;;7.07;3.85;;;;;;;;;;5084840;28;20027;-43
2023/10/13 19:02:43;;;;;;;8.75;4.10;;;;;;;;;;5084118;28;20308;-42